ETNEASTLAND MUNI
METARs for airports near ETN, sorted by distance:
N 0 nm 1467' KETN 171615Z 16016KT 10SM 29/21 A2984
W 11 nm 1711' KGZN 171600Z 17017G26KT 10SM 28/21 A2982
N 18 nm 1284' KBKD 171615Z 7SM SCT036 30/21 A2982
S 31 nm 1386' KMKN 171615Z 18016G20KT 10SM SCT033 SCT040 31/22 A2985
E 34 nm 1321' KSEP 171615Z 17009G15KT 10SM SCT032 BKN040 BKN046 30/21 A2988
S 38 nm 1386' KBWD 171615Z 16014G21KT 9SM FEW038 FEW044 30/21 A2984
N 43 nm 1123' KRPH 171615Z 17011KT 140V200 10SM BKN031 BKN040 29/22 A2981
NE 43 nm 973' KMWL 171553Z 17014G24KT 10SM -RA SCT032 BKN039 29/22 A2982
W 44 nm 1790' KABI 171552Z 17018G28KT 10SM FEW029 29/21 A2982
SW 45 nm 1696' KCOM 171615Z 10SM BKN031 OVC037 29/20 A2984
E 50 nm 835' KGDJ 152135Z 16008KT 10SM SCT055 33/19 A2987
W 53 nm 1790' KDYS 171556Z 16023G32KT 10SM FEW034 29/20 A2979
SE 56 nm 1304' KMNZ 171615Z 19016G21KT 10SM CLR 30/21 A2987
NE 67 nm 863' KXBP 171615Z 18012G19KT 10SM BKN033 BKN042 30/22 A2986
E 69 nm 854' KCPT 171615Z 16015G22KT 10SM SCT026 BKN034 BKN043 30/24 A2987
E 72 nm 650' KNFW 171552Z 16017G27KT 10SM FEW027 SCT070 31/22 A2984
E 76 nm 700' KFWS 171547Z 16016G20KT 10SM SCT037 SCT048 30/22 A2987
E 77 nm 710' KFTW 171553Z 17014KT 10SM BKN031 BKN035 31/23 A2983
S 78 nm 1827' KBBD 171615Z 18017G22KT 10SM SCT039 29/19 A2984
SE 78 nm 905' KGOP 171615Z 15012G20KT 10SM FEW050 FEW060 31/24 A2986
NE 79 nm 1046' KLUD 171615Z 17013G17KT 7SM SCT026 SCT033 SCT039 29/22 A2986
NE 82 nm 723' KAFW 171553Z 17019G25KT 10SM SCT027 BKN033 31/23 A2984
W 84 nm 2379' KSWW 171615Z 18019G24KT 10SM 30/19 A2984
E 88 nm 628' KGKY 171553Z 15018G29KT 10SM FEW029 BKN041 BKN050 31/22 A2985
N 88 nm 1003' KCWC 171615Z 19017G21KT 10SM CLR 31/22 A2981
E 89 nm 685' KINJ 171615Z 16014G19KT 10SM SCT025 SCT031 BKN048 31/23 A2986
E 90 nm 590' KGPM 171550Z 18015G19KT 10SM SCT027 BKN037 BKN050 30/22 A2987
SE 93 nm 516' KACT 171551Z 17015G22KT 10SM SCT029 BKN060 31/23 A2985
NE 94 nm 642' KDTO 171553Z 16018G25KT 10SM FEW027 SCT034 BKN043 30/23 A2986
E 94 nm 606' KDFW 171553Z 17013G22KT 10SM SCT026 SCT050 30/23 A2984
SE 94 nm 591' KPWG 171621Z 16015G19KT 10SM SCT024 32/23 A2986
SE 94 nm 910' KHLR 171555Z 18012G18KT 10SM CLR 30/23 A2985
SE 95 nm 1015' KGRK 171555Z 14014KT 10SM FEW031 SCT042 31/23 A2985
N 95 nm 1019' KSPS 171552Z 19019G27KT 10SM SCT030 31/22 A2979
E 96 nm 727' KJWY 171615Z 16014KT 10SM FEW029 31/23 A2988
S 98 nm 1101' KAQO 171615Z 19008G16KT 150V220 10SM BKN036 BKN043 BKN050 30/21 A2984
SE 98 nm 847' KILE 170356Z 15011KT 10SM CLR 28/22 A2985
E 99 nm 660' KRBD 171553Z 17015G21KT 10SM SCT029 BKN039 30/23 A2986
SE 99 nm 470' KCNW 171555Z 16008G15KT 7SM BKN030 30/23 A2986
TAFs for airports near ETN, sorted by distance:
W 44 nm 1790' KABI TAF KABI 171129Z 1712/1812 16015G24KT P6SM FEW250
  FM171400 16020G30KT P6SM FEW250
W 53 nm 1790' KDYS TAF KDYS 171600Z 1716/1822 17025G35KT 9999 SCT050 QNH2966INS
  BECMG 1801/1802 14025G35KT 9999 SCT080 QNH2970INS
  BECMG 1806/1807 17025G35KT 9999 BKN050 QNH2974INS
  BECMG 1814/1815 17020G30KT 9999 BKN050 QNH2973INS TX36/1721Z TN24/1811Z
E 72 nm 650' KNFW TAF KNFW 1715/1815 17018G25KT 9999 SCT030 SCT075 QNH2972INS
  TEMPO 1715/1716 BKN027 BKN075
  BECMG 1720/1722 17022G28KT 9999 VCTS SCT045CB SCT080 QNH2970INS
  BECMG 1800/1802 17015G22KT 9999 NSW BKN022 OVC045 QNH2974INS
  BECMG 1806/1808 17012G18KT 9999 BKN012 OVC020 QNH2978INS TX34/1721Z TN25/1809Z FN20046
E 77 nm 710' KFTW KFTW 171503Z 1715/1812 15013KT P6SM SCT025 BKN035
  FM171600 16015G25KT P6SM SCT040 SCT250
  FM180700 15016KT P6SM BKN022
S 78 nm 1827' KBBD KBBD 171129Z 1712/1812 16011G19KT P6SM SCT035
  TEMPO 1712/1715 BKN025
  FM171500 15015G23KT P6SM SCT250
  FM180800 16015G24KT P6SM BKN025
NE 82 nm 723' KAFW TAF
  AMD KAFW 171503Z 1715/1812 15013KT P6SM SCT025 BKN035
  FM171600 16015G25KT P6SM SCT040 SCT250
  FM180700 15016KT P6SM BKN022
E 88 nm 628' KGKY TAF
  AMD KGKY 171503Z 1715/1812 15013KT P6SM SCT025 BKN035
  FM171600 16015G25KT P6SM SCT040 SCT250
  FM180700 15016KT P6SM BKN022
SE 93 nm 516' KACT KACT 171503Z 1715/1812 15015KT P6SM BKN025
  FM171700 15016KT P6SM SCT035
  FM172000 16017KT P6SM VCSH SCT040 BKN250
  FM172300 15016KT P6SM FEW040 BKN250
  FM180600 15015KT P6SM BKN022
E 94 nm 606' KDFW KDFW 171503Z 1715/1818 15013KT P6SM SCT025 BKN035
  FM171600 16015G25KT P6SM SCT040 SCT250
  FM180700 15016KT P6SM BKN022
  FM181600 15017KT P6SM SCT035
SE 95 nm 1015' KGRK TAF KGRK 170800Z 1708/1814 15010G15KT 9999 SKC QNH2983INS
  BECMG 1709/1710 16010G15KT 9999 OVC015 QNH2986INS
  BECMG 1715/1716 16010G20KT 9999 BKN030 BKN045 QNH2986INS
  BECMG 1717/1718 16015G20KT 9999 SCT045 QNH2986INS
  BECMG 1723/1724 16015G20KT 9999 FEW045 QNH2976INS
  BECMG 1809/1810 16010KT 9999 OVC015 QNH2984INS TX33/1720Z TN24/1712Z
N 95 nm 1019' KSPS TAF
  AMD KSPS 171502Z 1715/1812 18018G31KT P6SM SCT025
  TEMPO 1715/1718 BKN025
  FM180800 15017G24KT P6SM OVC025

Shortcut to this page: http://wxbay.com.

Data may contain errors.